< < Back
Terminal Aerodrome Forecast


Current Version              Previous Versions:   1  2  3  4  5  6  7  8  9  

Terminal Aerodrome Forecast

308
FTUS44 KBMX 241100
TAFANB
TAF
KANB 241120Z 2412/2512 09004KT P6SM SKC
     FM241600 17006KT P6SM SCT080
     FM250600 23007KT P6SM VCSH OVC050=



Latest METAR

889
SAUS70 KWBC 250300 RRP
MTRANB
METAR KANB 250253Z AUTO 00000KT 10SM SCT075 20/14 A2990 RMK AO2 SLP118
T02000139 53012


USA.gov is the U.S. government's official web portal to all federal, state and local government web resources and services.